Terminal Aerodrome Forecast
Issued by NWS

Home | Current Version | Previous Version | Text Only | Print | Product List | Glossary On
Versions: 1 2 3 4 5 6 7 8 9 10 11 12 13 14 15 16 17
000
FTUS44 KLZK 241252 AAA
TAFHOT
TAF AMD
KHOT 241252Z 2413/2512 21007KT P6SM BKN015
     FM241500 25010KT P6SM BKN025 OVC040
     FM241800 28010G16KT P6SM SCT025 BKN040
     FM242300 30008KT P6SM SCT040 BKN250=

USA.gov is the U.S. government's official web portal to all federal, state and local government web resources and services.